EETNLIMZ

Guest
Details From EETN - TALLINN
To LIMZ - LEVALDIGI
Flight Number -
Tags decoded
Created
Modified
Stats Distance 1,090 nm / 2,018 km
Max Altitude 0 ft / 0 m
Waypoints 3
Social Downloads 0
Likes 0
Share VATSIM

Download

Looking for another format? Having issues loading an existing format? Contact us
Advertisement - Login to hide

Notes

Requested: EETN XIBER LIMZ

Route

EETN XIBER LIMZ

ID Type Via Altitude Latitude Longitude Leg Dist Tot Dist Heading (true) Name
O EETN APT - 0 ft / 0 m 59.41326˚ 24.83280˚ - 0 nm - TALLINN
XIBER FIX - 0 ft / 0 m 45.35028˚ 8.21972˚ 1035 nm 1035 nm 223° / 209° -
O LIMZ APT - 0 ft / 0 m 44.54760˚ 7.62332˚ 54 nm 1089 nm 208° / 208° LEVALDIGI

Altitude Profile

Advertisement - Login to hide

Weather


0- 5 10 15 20 25 30 35+ Temperature / ° C

Clouds and Precipitation
Forecast for 2017-12-12 18:00 UTC. Updated an hour ago

Ground ~20,000 ft ~40,000 ft Winds

EETN

Details ICAO EETN (TLL)
Name TALLINN
Region Estonia
Timezone Europe/Tallinn (UTC+2.0)
Stats Elevation 131 ft / 40 m (AMSL)
Location 59.413257° 24.832803°
Runways 1
Magnetic Variation 8.635° E

METAR

EETN 121620Z 18010KT 9999 -RA BKN007 OVC015 03/02 Q0985 R08/650295 NOSIG

Decode

TAF

TAF TAF EETN 121130Z 1212/1312 17015KT 9999 BKN006 BKN012 TEMPO 1212/1220 18015G25KT TEMPO 1212/1223 3000 RA BR BKN004 BKN010 TEMPO 1223/1307 2000 RASN BKN004 BKN010 BECMG 1222/1224 28015G27KT BECMG 1307/1309 BKN015

Decode

Departure Runways

ID Width Length Bearing (true) Bearing (mag) Surface Threshold Offset Overrun Length
08 148 ft / 45 m 10,023 ft / 3,055 m 90.24° 81.61° Asphalt 820 ft / 250 m 0 ft / 0 m
26 148 ft / 45 m 10,023 ft / 3,055 m 270.28° 261.65° Asphalt 0 ft / 0 m 184 ft / 56 m

LIMZ

Details ICAO LIMZ (CUF)
Name LEVALDIGI
Region Italy
Timezone Europe/Rome (UTC+1.0)
Stats Elevation 1,267 ft / 386 m (AMSL)
Location 44.547603° 7.623322°
Runways 1
Magnetic Variation 2.112° E

METAR

LIMZ 121550Z VRB02KT 0200 R21/0300N FZFG NSC M02/M02 Q1010 R21/220195

Decode

TAF

TAF TAF LIMZ 121100Z 1212/1312 VRB05KT 2500 BR NSC BECMG 1213/1215 6000 BECMG 1216/1218 1500 BR BECMG 1220/1222 0300 FZFG BKN005 BECMG 1308/1311 2500 BR SCT015

Decode

Destination Runways

ID Width Length Bearing (true) Bearing (mag) Surface Threshold Offset Overrun Length
03 148 ft / 45 m 6,903 ft / 2,104 m 32.49° 30.38° Asphalt 0 ft / 0 m 696 ft / 212 m
21 148 ft / 45 m 6,903 ft / 2,104 m 212.50° 210.39° Asphalt 0 ft / 0 m 581 ft / 177 m

Approach Navaids

Runway Type Ident Frequency Range Bearing (true) Bearing (mag) Slope Elevation
21 Localiser LEV 110.95 MHz 18 nm / 33 km 212.50° 210.38° - 1,267 ft / 386 m (AMSL)
21 Glidescope LEV 110.95 MHz 10 nm / 19 km 212.50° 210.38° 3.00° 1,267 ft / 386 m (AMSL)

Popular Alternatives